sensor_id;sensor_type;location;lat;lon;timestamp;P1;durP1;ratioP1;P2;durP2;ratioP2
72125;SDS011;59999;51.676;22.650;2022-09-06T00:01:49;8.10;;;1.00;;
72125;SDS011;59999;51.676;22.650;2022-09-06T00:04:21;4.90;;;1.00;;
72125;SDS011;59999;51.676;22.650;2022-09-06T00:06:56;5.10;;;1.00;;
72125;SDS011;59999;51.676;22.650;2022-09-06T00:09:22;4.72;;;1.10;;
72125;SDS011;59999;51.676;22.650;2022-09-06T00:11:47;4.20;;;0.83;;
72125;SDS011;59999;51.676;22.650;2022-09-06T00:14:13;4.38;;;0.90;;
72125;SDS011;59999;51.676;22.650;2022-09-06T00:16:39;5.60;;;1.10;;
72125;SDS011;59999;51.676;22.650;2022-09-06T00:19:05;4.70;;;1.10;;
72125;SDS011;59999;51.676;22.650;2022-09-06T00:21:31;4.15;;;1.08;;
72125;SDS011;59999;51.676;22.650;2022-09-06T00:23:57;4.03;;;1.08;;
72125;SDS011;59999;51.676;22.650;2022-09-06T00:26:23;4.90;;;1.10;;
72125;SDS011;59999;51.676;22.650;2022-09-06T00:28:49;5.60;;;1.00;;
72125;SDS011;59999;51.676;22.650;2022-09-06T00:31:19;4.57;;;1.10;;
72125;SDS011;59999;51.676;22.650;2022-09-06T00:33:47;4.20;;;0.98;;
72125;SDS011;59999;51.676;22.650;2022-09-06T00:36:13;3.92;;;0.90;;
72125;SDS011;59999;51.676;22.650;2022-09-06T00:38:40;5.47;;;1.10;;
72125;SDS011;59999;51.676;22.650;2022-09-06T00:41:07;6.60;;;1.15;;
72125;SDS011;59999;51.676;22.650;2022-09-06T00:43:35;5.32;;;0.95;;
72125;SDS011;59999;51.676;22.650;2022-09-06T00:46:02;4.40;;;0.95;;
72125;SDS011;59999;51.676;22.650;2022-09-06T00:48:29;4.47;;;0.80;;
72125;SDS011;59999;51.676;22.650;2022-09-06T00:50:57;6.17;;;1.40;;
72125;SDS011;59999;51.676;22.650;2022-09-06T00:53:26;6.57;;;0.95;;
72125;SDS011;59999;51.676;22.650;2022-09-06T00:55:53;5.10;;;1.08;;
72125;SDS011;59999;51.676;22.650;2022-09-06T00:58:19;7.47;;;1.20;;
72125;SDS011;59999;51.676;22.650;2022-09-06T01:00:46;3.85;;;0.90;;
72125;SDS011;59999;51.676;22.650;2022-09-06T01:03:12;9.57;;;1.20;;
72125;SDS011;59999;51.676;22.650;2022-09-06T01:16:34;5.47;;;1.30;;
72125;SDS011;59999;51.676;22.650;2022-09-06T01:33:53;4.38;;;1.00;;
72125;SDS011;59999;51.676;22.650;2022-09-06T01:36:28;6.22;;;1.30;;
72125;SDS011;59999;51.676;22.650;2022-09-06T01:39:31;5.22;;;1.30;;
72125;SDS011;59999;51.676;22.650;2022-09-06T01:42:20;6.37;;;1.40;;
72125;SDS011;59999;51.676;22.650;2022-09-06T01:44:52;8.15;;;1.40;;
72125;SDS011;59999;51.676;22.650;2022-09-06T01:47:35;5.32;;;1.30;;
72125;SDS011;59999;51.676;22.650;2022-09-06T02:01:00;5.38;;;1.48;;
72125;SDS011;59999;51.676;22.650;2022-09-06T02:03:37;6.18;;;1.70;;
72125;SDS011;59999;51.676;22.650;2022-09-06T02:06:27;5.78;;;1.40;;
72125;SDS011;59999;51.676;22.650;2022-09-06T02:09:02;5.53;;;1.50;;
72125;SDS011;59999;51.676;22.650;2022-09-06T02:11:34;8.07;;;1.33;;
72125;SDS011;59999;51.676;22.650;2022-09-06T02:17:03;4.68;;;1.25;;
72125;SDS011;59999;51.676;22.650;2022-09-06T02:19:35;5.10;;;1.73;;
72125;SDS011;59999;51.676;22.650;2022-09-06T02:22:11;7.30;;;1.80;;
72125;SDS011;59999;51.676;22.650;2022-09-06T02:24:39;6.60;;;1.35;;
72125;SDS011;59999;51.676;22.650;2022-09-06T02:27:08;5.93;;;1.67;;
72125;SDS011;59999;51.676;22.650;2022-09-06T02:29:36;5.68;;;1.30;;
72125;SDS011;59999;51.676;22.650;2022-09-06T02:32:20;6.40;;;1.70;;
72125;SDS011;59999;51.676;22.650;2022-09-06T02:34:49;5.80;;;1.30;;
72125;SDS011;59999;51.676;22.650;2022-09-06T02:37:17;5.85;;;1.42;;
72125;SDS011;59999;51.676;22.650;2022-09-06T02:39:43;8.15;;;1.60;;
72125;SDS011;59999;51.676;22.650;2022-09-06T02:42:10;6.85;;;1.50;;
72125;SDS011;59999;51.676;22.650;2022-09-06T02:44:38;8.98;;;1.90;;
72125;SDS011;59999;51.676;22.650;2022-09-06T02:47:05;5.80;;;1.63;;
72125;SDS011;59999;51.676;22.650;2022-09-06T02:49:31;8.15;;;1.35;;
72125;SDS011;59999;51.676;22.650;2022-09-06T02:51:57;7.68;;;1.77;;
72125;SDS011;59999;51.676;22.650;2022-09-06T02:54:23;5.72;;;1.52;;
72125;SDS011;59999;51.676;22.650;2022-09-06T02:56:49;7.55;;;1.73;;
72125;SDS011;59999;51.676;22.650;2022-09-06T02:59:15;6.95;;;1.85;;
72125;SDS011;59999;51.676;22.650;2022-09-06T03:01:41;5.68;;;1.80;;
72125;SDS011;59999;51.676;22.650;2022-09-06T03:04:07;7.13;;;1.80;;
72125;SDS011;59999;51.676;22.650;2022-09-06T03:06:33;7.68;;;2.13;;
72125;SDS011;59999;51.676;22.650;2022-09-06T03:08:59;5.40;;;1.60;;
72125;SDS011;59999;51.676;22.650;2022-09-06T03:11:26;11.73;;;1.90;;
72125;SDS011;59999;51.676;22.650;2022-09-06T03:13:52;6.47;;;1.73;;
72125;SDS011;59999;51.676;22.650;2022-09-06T03:16:18;6.35;;;1.58;;
72125;SDS011;59999;51.676;22.650;2022-09-06T03:18:45;5.88;;;1.63;;
72125;SDS011;59999;51.676;22.650;2022-09-06T03:21:11;8.88;;;1.70;;
72125;SDS011;59999;51.676;22.650;2022-09-06T03:23:37;10.13;;;1.80;;
72125;SDS011;59999;51.676;22.650;2022-09-06T03:26:06;8.15;;;1.90;;
72125;SDS011;59999;51.676;22.650;2022-09-06T03:28:32;5.57;;;1.75;;
72125;SDS011;59999;51.676;22.650;2022-09-06T03:30:58;5.47;;;1.45;;
72125;SDS011;59999;51.676;22.650;2022-09-06T03:33:24;6.05;;;1.60;;
72125;SDS011;59999;51.676;22.650;2022-09-06T03:35:57;5.72;;;1.50;;
72125;SDS011;59999;51.676;22.650;2022-09-06T03:38:25;6.80;;;1.70;;
72125;SDS011;59999;51.676;22.650;2022-09-06T03:40:52;8.93;;;1.60;;
72125;SDS011;59999;51.676;22.650;2022-09-06T03:43:19;7.18;;;1.35;;
72125;SDS011;59999;51.676;22.650;2022-09-06T03:45:56;5.68;;;1.45;;
72125;SDS011;59999;51.676;22.650;2022-09-06T03:48:23;4.43;;;1.42;;
72125;SDS011;59999;51.676;22.650;2022-09-06T03:50:51;8.75;;;2.00;;
72125;SDS011;59999;51.676;22.650;2022-09-06T03:53:19;6.97;;;1.90;;
72125;SDS011;59999;51.676;22.650;2022-09-06T03:55:50;6.18;;;1.75;;
72125;SDS011;59999;51.676;22.650;2022-09-06T03:58:18;7.72;;;2.33;;
72125;SDS011;59999;51.676;22.650;2022-09-06T04:00:45;7.65;;;2.10;;
72125;SDS011;59999;51.676;22.650;2022-09-06T04:03:11;7.75;;;1.77;;
72125;SDS011;59999;51.676;22.650;2022-09-06T04:05:38;7.35;;;1.50;;
72125;SDS011;59999;51.676;22.650;2022-09-06T04:08:04;8.05;;;1.50;;
72125;SDS011;59999;51.676;22.650;2022-09-06T04:10:31;7.33;;;2.13;;
72125;SDS011;59999;51.676;22.650;2022-09-06T04:12:57;8.30;;;1.80;;
72125;SDS011;59999;51.676;22.650;2022-09-06T04:15:23;7.20;;;1.80;;
72125;SDS011;59999;51.676;22.650;2022-09-06T04:17:49;7.55;;;1.98;;
72125;SDS011;59999;51.676;22.650;2022-09-06T04:20:15;6.73;;;1.60;;
72125;SDS011;59999;51.676;22.650;2022-09-06T04:22:41;6.80;;;1.52;;
72125;SDS011;59999;51.676;22.650;2022-09-06T04:25:07;8.70;;;1.70;;
72125;SDS011;59999;51.676;22.650;2022-09-06T04:27:34;5.32;;;1.38;;
72125;SDS011;59999;51.676;22.650;2022-09-06T04:30:00;6.30;;;1.60;;
72125;SDS011;59999;51.676;22.650;2022-09-06T04:32:26;5.93;;;1.30;;
72125;SDS011;59999;51.676;22.650;2022-09-06T04:34:52;9.95;;;1.73;;
72125;SDS011;59999;51.676;22.650;2022-09-06T04:37:18;5.95;;;1.83;;
72125;SDS011;59999;51.676;22.650;2022-09-06T04:39:45;5.87;;;1.60;;
72125;SDS011;59999;51.676;22.650;2022-09-06T04:42:11;7.28;;;1.63;;
72125;SDS011;59999;51.676;22.650;2022-09-06T04:44:37;8.40;;;1.77;;
72125;SDS011;59999;51.676;22.650;2022-09-06T04:47:07;5.70;;;1.80;;
72125;SDS011;59999;51.676;22.650;2022-09-06T04:49:39;9.20;;;1.77;;
72125;SDS011;59999;51.676;22.650;2022-09-06T04:52:06;7.77;;;1.57;;
72125;SDS011;59999;51.676;22.650;2022-09-06T04:54:32;5.82;;;1.90;;
72125;SDS011;59999;51.676;22.650;2022-09-06T04:56:58;7.25;;;1.60;;
72125;SDS011;59999;51.676;22.650;2022-09-06T04:59:24;7.40;;;1.75;;
72125;SDS011;59999;51.676;22.650;2022-09-06T05:01:50;7.03;;;1.73;;
72125;SDS011;59999;51.676;22.650;2022-09-06T05:04:16;6.03;;;1.88;;
72125;SDS011;59999;51.676;22.650;2022-09-06T05:06:42;8.65;;;2.20;;
72125;SDS011;59999;51.676;22.650;2022-09-06T05:09:08;5.70;;;1.55;;
72125;SDS011;59999;51.676;22.650;2022-09-06T05:11:34;6.28;;;1.55;;
72125;SDS011;59999;51.676;22.650;2022-09-06T05:14:00;6.83;;;1.73;;
72125;SDS011;59999;51.676;22.650;2022-09-06T05:16:26;4.70;;;1.73;;
72125;SDS011;59999;51.676;22.650;2022-09-06T05:18:52;6.30;;;1.70;;
72125;SDS011;59999;51.676;22.650;2022-09-06T05:21:18;5.80;;;1.42;;
72125;SDS011;59999;51.676;22.650;2022-09-06T05:23:44;5.13;;;1.47;;
72125;SDS011;59999;51.676;22.650;2022-09-06T05:26:10;6.53;;;1.80;;
72125;SDS011;59999;51.676;22.650;2022-09-06T05:28:36;5.50;;;1.50;;
72125;SDS011;59999;51.676;22.650;2022-09-06T05:31:06;11.83;;;1.73;;
72125;SDS011;59999;51.676;22.650;2022-09-06T05:33:33;6.80;;;1.63;;
72125;SDS011;59999;51.676;22.650;2022-09-06T05:36:01;8.57;;;1.50;;
72125;SDS011;59999;51.676;22.650;2022-09-06T05:38:28;7.80;;;1.55;;
72125;SDS011;59999;51.676;22.650;2022-09-06T05:40:54;5.43;;;1.40;;
72125;SDS011;59999;51.676;22.650;2022-09-06T05:43:20;7.90;;;1.50;;
72125;SDS011;59999;51.676;22.650;2022-09-06T05:45:46;6.45;;;1.10;;
72125;SDS011;59999;51.676;22.650;2022-09-06T05:48:12;8.10;;;1.42;;
72125;SDS011;59999;51.676;22.650;2022-09-06T05:50:38;6.82;;;1.10;;
72125;SDS011;59999;51.676;22.650;2022-09-06T05:53:04;8.10;;;1.30;;
72125;SDS011;59999;51.676;22.650;2022-09-06T05:55:30;8.60;;;1.38;;
72125;SDS011;59999;51.676;22.650;2022-09-06T05:57:56;6.28;;;1.40;;
72125;SDS011;59999;51.676;22.650;2022-09-06T06:00:22;6.30;;;1.30;;
72125;SDS011;59999;51.676;22.650;2022-09-06T06:02:48;9.13;;;1.33;;
72125;SDS011;59999;51.676;22.650;2022-09-06T06:05:14;8.88;;;1.50;;
72125;SDS011;59999;51.676;22.650;2022-09-06T06:07:40;6.93;;;1.30;;
72125;SDS011;59999;51.676;22.650;2022-09-06T06:10:07;5.47;;;1.30;;
72125;SDS011;59999;51.676;22.650;2022-09-06T06:12:33;6.30;;;1.60;;
72125;SDS011;59999;51.676;22.650;2022-09-06T06:14:59;5.13;;;1.40;;
72125;SDS011;59999;51.676;22.650;2022-09-06T06:17:25;6.18;;;1.30;;
72125;SDS011;59999;51.676;22.650;2022-09-06T06:19:52;4.43;;;0.90;;
72125;SDS011;59999;51.676;22.650;2022-09-06T06:22:19;7.00;;;1.35;;
72125;SDS011;59999;51.676;22.650;2022-09-06T06:24:44;6.43;;;1.20;;
72125;SDS011;59999;51.676;22.650;2022-09-06T06:27:10;8.70;;;1.50;;
72125;SDS011;59999;51.676;22.650;2022-09-06T06:29:36;5.47;;;1.27;;
72125;SDS011;59999;51.676;22.650;2022-09-06T06:32:02;4.90;;;0.90;;
72125;SDS011;59999;51.676;22.650;2022-09-06T06:34:28;4.00;;;1.00;;
72125;SDS011;59999;51.676;22.650;2022-09-06T06:36:54;4.30;;;1.10;;
72125;SDS011;59999;51.676;22.650;2022-09-06T06:39:20;5.38;;;1.13;;
72125;SDS011;59999;51.676;22.650;2022-09-06T06:41:46;4.43;;;1.10;;
72125;SDS011;59999;51.676;22.650;2022-09-06T06:44:14;3.60;;;1.00;;
72125;SDS011;59999;51.676;22.650;2022-09-06T06:46:39;3.78;;;0.93;;
72125;SDS011;59999;51.676;22.650;2022-09-06T06:49:06;4.30;;;1.20;;
72125;SDS011;59999;51.676;22.650;2022-09-06T06:51:32;7.90;;;1.30;;
72125;SDS011;59999;51.676;22.650;2022-09-06T06:54:01;5.27;;;1.30;;
72125;SDS011;59999;51.676;22.650;2022-09-06T06:56:29;4.72;;;1.15;;
72125;SDS011;59999;51.676;22.650;2022-09-06T06:58:57;8.93;;;1.60;;
72125;SDS011;59999;51.676;22.650;2022-09-06T07:01:29;6.53;;;1.80;;
72125;SDS011;59999;51.676;22.650;2022-09-06T07:03:56;9.30;;;1.30;;
72125;SDS011;59999;51.676;22.650;2022-09-06T07:06:24;6.90;;;1.30;;
72125;SDS011;59999;51.676;22.650;2022-09-06T07:08:52;5.53;;;0.80;;
72125;SDS011;59999;51.676;22.650;2022-09-06T07:11:20;4.65;;;1.00;;
72125;SDS011;59999;51.676;22.650;2022-09-06T07:13:46;4.32;;;0.98;;
72125;SDS011;59999;51.676;22.650;2022-09-06T07:16:13;3.63;;;0.85;;
72125;SDS011;59999;51.676;22.650;2022-09-06T07:18:42;5.13;;;1.10;;
72125;SDS011;59999;51.676;22.650;2022-09-06T07:21:16;5.65;;;0.90;;
72125;SDS011;59999;51.676;22.650;2022-09-06T07:23:44;4.70;;;0.70;;
72125;SDS011;59999;51.676;22.650;2022-09-06T07:26:14;4.22;;;0.90;;
72125;SDS011;59999;51.676;22.650;2022-09-06T07:28:41;3.55;;;0.57;;
72125;SDS011;59999;51.676;22.650;2022-09-06T07:31:07;3.87;;;0.70;;
72125;SDS011;59999;51.676;22.650;2022-09-06T07:33:34;4.75;;;0.80;;
72125;SDS011;59999;51.676;22.650;2022-09-06T07:36:01;2.88;;;0.60;;
72125;SDS011;59999;51.676;22.650;2022-09-06T07:38:29;3.92;;;0.90;;
72125;SDS011;59999;51.676;22.650;2022-09-06T07:40:57;4.20;;;0.60;;
72125;SDS011;59999;51.676;22.650;2022-09-06T07:43:25;4.30;;;0.80;;
72125;SDS011;59999;51.676;22.650;2022-09-06T07:46:02;6.03;;;0.85;;
72125;SDS011;59999;51.676;22.650;2022-09-06T07:48:30;3.75;;;0.60;;
72125;SDS011;59999;51.676;22.650;2022-09-06T07:51:04;6.13;;;0.60;;
72125;SDS011;59999;51.676;22.650;2022-09-06T07:53:31;6.53;;;0.77;;
72125;SDS011;59999;51.676;22.650;2022-09-06T07:56:01;4.00;;;0.50;;
72125;SDS011;59999;51.676;22.650;2022-09-06T07:58:29;3.03;;;0.50;;
72125;SDS011;59999;51.676;22.650;2022-09-06T08:03:44;4.05;;;0.82;;
72125;SDS011;59999;51.676;22.650;2022-09-06T08:06:11;1.83;;;0.40;;
72125;SDS011;59999;51.676;22.650;2022-09-06T08:08:38;1.00;;;0.30;;
72125;SDS011;59999;51.676;22.650;2022-09-06T08:11:07;2.03;;;0.30;;
72125;SDS011;59999;51.676;22.650;2022-09-06T08:13:36;3.08;;;0.40;;
72125;SDS011;59999;51.676;22.650;2022-09-06T08:16:06;7.45;;;0.60;;
72125;SDS011;59999;51.676;22.650;2022-09-06T08:18:34;2.22;;;0.40;;
72125;SDS011;59999;51.676;22.650;2022-09-06T08:21:10;1.83;;;0.50;;
72125;SDS011;59999;51.676;22.650;2022-09-06T08:23:39;1.88;;;0.40;;
72125;SDS011;59999;51.676;22.650;2022-09-06T08:26:08;1.85;;;0.32;;
72125;SDS011;59999;51.676;22.650;2022-09-06T08:28:34;2.45;;;0.50;;
72125;SDS011;59999;51.676;22.650;2022-09-06T08:31:07;1.63;;;0.40;;
72125;SDS011;59999;51.676;22.650;2022-09-06T08:33:35;2.53;;;0.30;;
72125;SDS011;59999;51.676;22.650;2022-09-06T08:36:02;1.90;;;0.30;;
72125;SDS011;59999;51.676;22.650;2022-09-06T08:38:29;2.13;;;0.50;;
72125;SDS011;59999;51.676;22.650;2022-09-06T08:41:04;1.92;;;0.40;;
72125;SDS011;59999;51.676;22.650;2022-09-06T08:44:08;4.18;;;0.30;;
72125;SDS011;59999;51.676;22.650;2022-09-06T08:47:19;2.90;;;0.50;;
72125;SDS011;59999;51.676;22.650;2022-09-06T08:49:37;1.80;;;0.40;;
72125;SDS011;59999;51.676;22.650;2022-09-06T09:00:31;2.50;;;0.40;;
72125;SDS011;59999;51.676;22.650;2022-09-06T09:05:34;1.52;;;0.35;;
72125;SDS011;59999;51.676;22.650;2022-09-06T09:11:16;5.00;;;0.40;;
72125;SDS011;59999;51.676;22.650;2022-09-06T09:16:39;3.65;;;0.40;;
72125;SDS011;59999;51.676;22.650;2022-09-06T09:19:05;1.50;;;0.40;;
72125;SDS011;59999;51.676;22.650;2022-09-06T09:21:32;1.83;;;0.30;;
72125;SDS011;59999;51.676;22.650;2022-09-06T09:24:02;2.38;;;0.40;;
72125;SDS011;59999;51.676;22.650;2022-09-06T09:26:48;1.83;;;0.40;;
72125;SDS011;59999;51.676;22.650;2022-09-06T09:29:18;3.55;;;0.50;;
72125;SDS011;59999;51.676;22.650;2022-09-06T09:31:45;1.20;;;0.20;;
72125;SDS011;59999;51.676;22.650;2022-09-06T09:34:36;2.15;;;0.30;;
72125;SDS011;59999;51.676;22.650;2022-09-06T09:37:17;1.95;;;0.40;;
72125;SDS011;59999;51.676;22.650;2022-09-06T09:39:47;1.30;;;0.40;;
72125;SDS011;59999;51.676;22.650;2022-09-06T09:42:22;1.02;;;0.30;;
72125;SDS011;59999;51.676;22.650;2022-09-06T09:44:52;2.10;;;0.40;;
72125;SDS011;59999;51.676;22.650;2022-09-06T09:47:25;1.38;;;0.40;;
72125;SDS011;59999;51.676;22.650;2022-09-06T09:49:53;1.48;;;0.40;;
72125;SDS011;59999;51.676;22.650;2022-09-06T09:52:26;1.37;;;0.40;;
72125;SDS011;59999;51.676;22.650;2022-09-06T09:54:57;3.83;;;0.40;;
72125;SDS011;59999;51.676;22.650;2022-09-06T09:57:27;2.08;;;0.30;;
72125;SDS011;59999;51.676;22.650;2022-09-06T09:59:56;1.63;;;0.38;;
72125;SDS011;59999;51.676;22.650;2022-09-06T10:02:32;1.13;;;0.30;;
72125;SDS011;59999;51.676;22.650;2022-09-06T10:05:01;2.07;;;0.40;;
72125;SDS011;59999;51.676;22.650;2022-09-06T10:07:34;1.80;;;0.40;;
72125;SDS011;59999;51.676;22.650;2022-09-06T10:10:30;1.33;;;0.35;;
72125;SDS011;59999;51.676;22.650;2022-09-06T10:13:08;1.88;;;0.40;;
72125;SDS011;59999;51.676;22.650;2022-09-06T10:15:38;1.85;;;0.40;;
72125;SDS011;59999;51.676;22.650;2022-09-06T10:18:05;1.40;;;0.40;;
72125;SDS011;59999;51.676;22.650;2022-09-06T10:20:39;3.80;;;0.50;;
72125;SDS011;59999;51.676;22.650;2022-09-06T10:25:46;1.90;;;0.30;;
72125;SDS011;59999;51.676;22.650;2022-09-06T10:28:39;1.80;;;0.40;;
72125;SDS011;59999;51.676;22.650;2022-09-06T10:36:19;1.23;;;0.38;;
72125;SDS011;59999;51.676;22.650;2022-09-06T10:46:43;1.25;;;0.35;;
72125;SDS011;59999;51.676;22.650;2022-09-06T10:49:12;1.58;;;0.47;;
72125;SDS011;59999;51.676;22.650;2022-09-06T10:51:43;2.67;;;0.40;;
72125;SDS011;59999;51.676;22.650;2022-09-06T10:54:20;1.70;;;0.33;;
72125;SDS011;59999;51.676;22.650;2022-09-06T10:59:33;1.75;;;0.45;;
72125;SDS011;59999;51.676;22.650;2022-09-06T11:02:09;2.08;;;0.40;;
72125;SDS011;59999;51.676;22.650;2022-09-06T11:04:57;1.83;;;0.40;;
72125;SDS011;59999;51.676;22.650;2022-09-06T11:07:31;2.60;;;0.50;;
72125;SDS011;59999;51.676;22.650;2022-09-06T11:18:29;1.95;;;0.57;;
72125;SDS011;59999;51.676;22.650;2022-09-06T11:24:15;2.22;;;0.55;;
72125;SDS011;59999;51.676;22.650;2022-09-06T11:29:52;1.40;;;0.40;;
72125;SDS011;59999;51.676;22.650;2022-09-06T11:32:28;1.75;;;0.40;;
72125;SDS011;59999;51.676;22.650;2022-09-06T11:34:58;1.57;;;0.37;;
72125;SDS011;59999;51.676;22.650;2022-09-06T11:37:33;1.70;;;0.40;;
72125;SDS011;59999;51.676;22.650;2022-09-06T11:40:14;1.17;;;0.40;;
72125;SDS011;59999;51.676;22.650;2022-09-06T11:55:21;2.00;;;0.50;;
72125;SDS011;59999;51.676;22.650;2022-09-06T11:57:54;4.25;;;0.50;;
72125;SDS011;59999;51.676;22.650;2022-09-06T12:00:23;1.77;;;0.40;;
72125;SDS011;59999;51.676;22.650;2022-09-06T12:02:50;3.83;;;0.63;;
72125;SDS011;59999;51.676;22.650;2022-09-06T12:05:26;2.90;;;0.50;;
72125;SDS011;59999;51.676;22.650;2022-09-06T12:16:08;2.95;;;0.50;;
72125;SDS011;59999;51.676;22.650;2022-09-06T12:21:30;2.08;;;0.70;;
72125;SDS011;59999;51.676;22.650;2022-09-06T12:27:10;1.52;;;0.50;;
72125;SDS011;59999;51.676;22.650;2022-09-06T12:29:37;1.48;;;0.40;;
72125;SDS011;59999;51.676;22.650;2022-09-06T12:32:03;1.80;;;0.50;;
72125;SDS011;59999;51.676;22.650;2022-09-06T12:34:30;2.53;;;0.50;;
72125;SDS011;59999;51.676;22.650;2022-09-06T12:37:01;1.95;;;0.50;;
72125;SDS011;59999;51.676;22.650;2022-09-06T12:39:29;1.98;;;0.40;;
72125;SDS011;59999;51.676;22.650;2022-09-06T12:41:58;1.80;;;0.50;;
72125;SDS011;59999;51.676;22.650;2022-09-06T12:44:33;1.73;;;0.40;;
72125;SDS011;59999;51.676;22.650;2022-09-06T12:47:03;1.38;;;0.40;;
72125;SDS011;59999;51.676;22.650;2022-09-06T12:49:43;1.95;;;0.55;;
72125;SDS011;59999;51.676;22.650;2022-09-06T12:52:10;1.98;;;0.60;;
72125;SDS011;59999;51.676;22.650;2022-09-06T12:54:41;2.65;;;0.40;;
72125;SDS011;59999;51.676;22.650;2022-09-06T12:57:19;1.53;;;0.47;;
72125;SDS011;59999;51.676;22.650;2022-09-06T12:59:49;1.90;;;0.60;;
72125;SDS011;59999;51.676;22.650;2022-09-06T13:02:31;3.38;;;0.50;;
72125;SDS011;59999;51.676;22.650;2022-09-06T13:05:09;4.50;;;0.88;;
72125;SDS011;59999;51.676;22.650;2022-09-06T13:07:41;2.72;;;0.60;;
72125;SDS011;59999;51.676;22.650;2022-09-06T13:10:11;3.60;;;0.73;;
72125;SDS011;59999;51.676;22.650;2022-09-06T13:12:41;1.73;;;0.60;;
72125;SDS011;59999;51.676;22.650;2022-09-06T13:17:41;3.88;;;0.43;;
72125;SDS011;59999;51.676;22.650;2022-09-06T13:20:20;2.85;;;0.50;;
72125;SDS011;59999;51.676;22.650;2022-09-06T13:22:49;3.03;;;0.50;;
72125;SDS011;59999;51.676;22.650;2022-09-06T13:25:22;2.40;;;0.40;;
72125;SDS011;59999;51.676;22.650;2022-09-06T13:27:51;2.50;;;0.70;;
72125;SDS011;59999;51.676;22.650;2022-09-06T13:30:40;1.85;;;0.50;;
72125;SDS011;59999;51.676;22.650;2022-09-06T13:33:07;2.10;;;0.50;;
72125;SDS011;59999;51.676;22.650;2022-09-06T13:36:03;2.57;;;0.50;;
72125;SDS011;59999;51.676;22.650;2022-09-06T13:38:32;1.98;;;0.50;;
72125;SDS011;59999;51.676;22.650;2022-09-06T13:41:03;2.15;;;0.40;;
72125;SDS011;59999;51.676;22.650;2022-09-06T13:43:38;2.00;;;0.50;;
72125;SDS011;59999;51.676;22.650;2022-09-06T13:46:08;1.77;;;0.40;;
72125;SDS011;59999;51.676;22.650;2022-09-06T13:48:36;1.43;;;0.50;;
72125;SDS011;59999;51.676;22.650;2022-09-06T13:51:06;2.35;;;0.60;;
72125;SDS011;59999;51.676;22.650;2022-09-06T13:53:34;2.05;;;0.47;;
72125;SDS011;59999;51.676;22.650;2022-09-06T13:56:00;2.97;;;0.50;;
72125;SDS011;59999;51.676;22.650;2022-09-06T13:58:27;2.17;;;0.40;;
72125;SDS011;59999;51.676;22.650;2022-09-06T14:00:53;1.73;;;0.50;;
72125;SDS011;59999;51.676;22.650;2022-09-06T14:03:23;2.63;;;0.47;;
72125;SDS011;59999;51.676;22.650;2022-09-06T14:05:57;2.63;;;0.57;;
72125;SDS011;59999;51.676;22.650;2022-09-06T14:08:27;3.35;;;0.50;;
72125;SDS011;59999;51.676;22.650;2022-09-06T14:10:53;1.55;;;0.50;;
72125;SDS011;59999;51.676;22.650;2022-09-06T14:13:19;1.73;;;0.50;;
72125;SDS011;59999;51.676;22.650;2022-09-06T14:15:46;2.72;;;0.50;;
72125;SDS011;59999;51.676;22.650;2022-09-06T14:18:13;2.45;;;0.50;;
72125;SDS011;59999;51.676;22.650;2022-09-06T14:20:40;1.85;;;0.50;;
72125;SDS011;59999;51.676;22.650;2022-09-06T14:23:07;2.60;;;0.50;;
72125;SDS011;59999;51.676;22.650;2022-09-06T14:25:34;4.37;;;0.60;;
72125;SDS011;59999;51.676;22.650;2022-09-06T14:28:01;4.57;;;0.50;;
72125;SDS011;59999;51.676;22.650;2022-09-06T14:30:28;1.92;;;0.50;;
72125;SDS011;59999;51.676;22.650;2022-09-06T14:32:54;1.42;;;0.50;;
72125;SDS011;59999;51.676;22.650;2022-09-06T14:35:20;2.47;;;0.57;;
72125;SDS011;59999;51.676;22.650;2022-09-06T14:37:47;1.90;;;0.53;;
72125;SDS011;59999;51.676;22.650;2022-09-06T14:40:25;2.85;;;0.50;;
72125;SDS011;59999;51.676;22.650;2022-09-06T14:42:51;2.53;;;1.00;;
72125;SDS011;59999;51.676;22.650;2022-09-06T14:45:17;2.10;;;0.50;;
72125;SDS011;59999;51.676;22.650;2022-09-06T14:47:44;1.60;;;0.50;;
72125;SDS011;59999;51.676;22.650;2022-09-06T14:50:10;2.30;;;0.60;;
72125;SDS011;59999;51.676;22.650;2022-09-06T14:52:36;2.47;;;0.55;;
72125;SDS011;59999;51.676;22.650;2022-09-06T14:55:02;2.78;;;0.52;;
72125;SDS011;59999;51.676;22.650;2022-09-06T14:57:29;1.63;;;0.60;;
72125;SDS011;59999;51.676;22.650;2022-09-06T14:59:55;2.80;;;0.70;;
72125;SDS011;59999;51.676;22.650;2022-09-06T15:02:21;2.85;;;0.73;;
72125;SDS011;59999;51.676;22.650;2022-09-06T15:04:47;2.78;;;0.70;;
72125;SDS011;59999;51.676;22.650;2022-09-06T15:07:13;3.13;;;0.70;;
72125;SDS011;59999;51.676;22.650;2022-09-06T15:09:39;4.00;;;0.70;;
72125;SDS011;59999;51.676;22.650;2022-09-06T15:12:05;2.78;;;0.60;;
72125;SDS011;59999;51.676;22.650;2022-09-06T15:14:31;2.75;;;0.63;;
72125;SDS011;59999;51.676;22.650;2022-09-06T15:16:58;3.70;;;0.80;;
72125;SDS011;59999;51.676;22.650;2022-09-06T15:19:25;2.00;;;0.60;;
72125;SDS011;59999;51.676;22.650;2022-09-06T15:21:53;3.30;;;0.63;;
72125;SDS011;59999;51.676;22.650;2022-09-06T15:24:21;8.38;;;0.80;;
72125;SDS011;59999;51.676;22.650;2022-09-06T15:26:47;1.75;;;0.50;;
72125;SDS011;59999;51.676;22.650;2022-09-06T15:29:14;2.17;;;0.68;;
72125;SDS011;59999;51.676;22.650;2022-09-06T15:31:41;2.10;;;0.80;;
72125;SDS011;59999;51.676;22.650;2022-09-06T15:34:08;4.13;;;1.07;;
72125;SDS011;59999;51.676;22.650;2022-09-06T15:36:35;3.15;;;0.70;;
72125;SDS011;59999;51.676;22.650;2022-09-06T15:39:02;2.33;;;0.82;;
72125;SDS011;59999;51.676;22.650;2022-09-06T15:41:29;3.42;;;0.70;;
72125;SDS011;59999;51.676;22.650;2022-09-06T15:43:58;4.10;;;0.80;;
72125;SDS011;59999;51.676;22.650;2022-09-06T15:49:01;3.85;;;0.88;;
72125;SDS011;59999;51.676;22.650;2022-09-06T15:51:29;2.58;;;0.82;;
72125;SDS011;59999;51.676;22.650;2022-09-06T15:53:58;3.80;;;0.80;;
72125;SDS011;59999;51.676;22.650;2022-09-06T15:56:24;3.80;;;1.00;;
72125;SDS011;59999;51.676;22.650;2022-09-06T15:58:50;7.80;;;1.00;;
72125;SDS011;59999;51.676;22.650;2022-09-06T16:01:17;3.22;;;0.90;;
72125;SDS011;59999;51.676;22.650;2022-09-06T16:03:46;4.70;;;1.00;;
72125;SDS011;59999;51.676;22.650;2022-09-06T16:06:15;5.17;;;1.43;;
72125;SDS011;59999;51.676;22.650;2022-09-06T16:08:43;4.45;;;0.90;;
72125;SDS011;59999;51.676;22.650;2022-09-06T16:11:11;4.40;;;0.93;;
72125;SDS011;59999;51.676;22.650;2022-09-06T16:13:39;3.28;;;0.90;;
72125;SDS011;59999;51.676;22.650;2022-09-06T16:16:06;2.97;;;0.90;;
72125;SDS011;59999;51.676;22.650;2022-09-06T16:18:35;2.23;;;0.57;;
72125;SDS011;59999;51.676;22.650;2022-09-06T16:21:07;4.07;;;0.77;;
72125;SDS011;59999;51.676;22.650;2022-09-06T16:23:38;2.83;;;0.80;;
72125;SDS011;59999;51.676;22.650;2022-09-06T16:26:05;3.08;;;0.80;;
72125;SDS011;59999;51.676;22.650;2022-09-06T16:28:33;2.72;;;0.80;;
72125;SDS011;59999;51.676;22.650;2022-09-06T16:31:04;3.10;;;0.70;;
72125;SDS011;59999;51.676;22.650;2022-09-06T16:33:32;4.60;;;0.90;;
72125;SDS011;59999;51.676;22.650;2022-09-06T16:36:00;4.05;;;0.73;;
72125;SDS011;59999;51.676;22.650;2022-09-06T16:38:28;4.63;;;1.13;;
72125;SDS011;59999;51.676;22.650;2022-09-06T16:43:43;3.10;;;0.60;;
72125;SDS011;59999;51.676;22.650;2022-09-06T16:46:10;2.95;;;0.70;;
72125;SDS011;59999;51.676;22.650;2022-09-06T16:48:37;7.00;;;1.40;;
72125;SDS011;59999;51.676;22.650;2022-09-06T16:51:09;3.22;;;0.80;;
72125;SDS011;59999;51.676;22.650;2022-09-06T16:53:40;3.83;;;0.73;;